Webcam Rollhalt 06

Webcam Rollhalt 24

 

Flugplatz - Wetter - Augsburg

[Quelle: ADDS]
METAR
EDMA 140320Z AUTO 12004KT 9999 // NCD 10/10 Q1017 =
EDMA 131700Z 1318/1403 13004KT CAVOK PROB30 TEMPO 1401/1403 3000 BCFG
TAF
EDMA 131700Z 1318/1403 13004KT CAVOK PROB30 TEMPO 1401/1403 3000 BCFG =
SR / SS: 05:35 / 16:32 UTC (Augsburg 2019-10-14)

Flugplatz - Wetter - Laupheim

[Quelle: ADDS]
METAR
ETHL 140320Z 18002KT 9999 MIFG 09/08 Q1017 BLU+ =
TAF
SR / SS: 05:39 / 16:36 UTC (Laupheim 2019-10-14)

Flugplatz - Wetter - Memmingen

[Quelle: ADDS]
METAR
EDJA 140320Z AUTO 17004KT 9999 // NCD 09/08 Q1018 =
EDJA 131700Z 1318/1403 17004KT CAVOK PROB30 TEMPO 1401/1403 3000 BCFG
TAF
EDJA 131700Z 1318/1403 17004KT CAVOK PROB30 TEMPO 1401/1403 3000 BCFG =
SR / SS: 05:36 / 16:34 UTC (Memmingen 2019-10-14)

Flugplatz - Wetter - Neuburg/Donau

[Quelle: ADDS]
METAR
ETSN 140320Z 34001KT 0300 FG 08/08 Q1018 RED =
ETSN 140100Z 1402/1411 VRB02KT 2000 BCFG FEW230 TEMPO 1402/1409 VRB02KT 0400 FG FEW001 BECMG 1409/1411 06006KT 9999 NSW FEW300 BY ETGL
TAF
ETSN 140100Z 1402/1411 VRB02KT 2000 BCFG FEW230 TEMPO 1402/1409 VRB02KT 0400 FG FEW001 BECMG 1409/1411 06006KT 9999 NSW FEW300 BY ETGL =
SR / SS: 05:33 / 16:29 UTC (Neuburg 2019-10-14)

Flugplatz - Wetter - Stuttgart

[Quelle: ADDS]
METAR
EDDS 140320Z 23004KT CAVOK 11/10 Q1016 =
EDDS 132300Z 1400/1424 VRB02KT CAVOK BECMG 1410/1413 08005KT BECMG 1416/1418 VRB03KT
TAF
EDDS 132300Z 1400/1424 VRB02KT CAVOK BECMG 1410/1413 08005KT BECMG 1416/1418 VRB03KT =
SR / SS: 05:41 / 16:37 UTC (Stuttgart 2019-10-14)

Flugplatz - Wetter - Niederstetten

[Quelle: ADDS]
METAR
ETHN 140320Z 16003KT 9999 FEW350 14/11 Q1016 BLU+ =
TAF
SR / SS: 05:40 / 16:34 UTC (Niederstetten 2019-10-14)